Главная страница
METAR-TAF:

METAR-TAF

Аэропорты :

Эсбьерг, Дания

широта: 55-32N, долгота: 008-34E, высота над уровнем моря: 30 м

Текущие метеонаблюдения

Эта сводка был подготовлена 13 минут назад, в 03:20 UTC
Ветер 10 Узел от северно-северо-западный
Температура 12°C
Влажность 94%
Давление 1021 hPa
Видимость 10 км и более

METAR: EKEB 180320Z AUTO 34010KT 9999NDV OVC006/// 12/11 Q1021

Время: 05:33 (03:33 UTC)

Прогноз

Эта сводка был подготовлена 42 минут назад, в 02:51 UTC
Прогноз действительный с 18-го 03 UTC до 18-го 12 UTC
Ветер 12 Узел от северный
Видимость 10 км и более
Рассеянная облачность на высоте 800 фута
изменения
С 18-го 03 UTC до 18-го 05 UTC
Отдельные облака на высоте 2000 фута

TAF: EKEB 180251Z 1803/1812 35012KT 9999 BKN008 BECMG 1803/1805 SCT020

Метеонаблюдения и прогнозы для более 4000 аэропортов (сводки METAR и TAF).

Имеющиеся станции представлены на карте желтыми и красными точками.

Чтобы увидеть название станции, наведите на нее мышь.

Затем щелкните, чтобы увидеть метеонаблюдения и метеопрогнозы.

Управление картой: чтобы увеличить масштаб, щелкните зеленые кнопки с черным крестиком; чтобы уменьшить масштаб, щелкните зеленую кнопку с тире; для просмотра соседних карт щелкайте зеленые стрелки.


METAR-TAF: